.
WxDataArchive / Data Records for 2016-05-17
2016-05-16 May 2016 2016-05-18

Data Records for Tuesday, 17 May 2016

Time	Temp	Chill	HIndex	Humid	Dewpt	 Wind 	HiWind	WindDir	Rain 	Barom
-----	----	-----	------	-----	-----	------	------	-------	-----	-----
00:00	57.0	57.0	57.0	53	40.0	0	0	---	0.00	30.118 
00:05	57.0	57.0	57.0	53	40.0	0	1	315	0.00	30.118 
00:10	56.9	56.9	56.9	54	40.4	0	1	315	0.00	30.118 
00:15	56.9	56.9	56.9	53	39.9	0	2	315	0.00	30.116 
00:20	56.9	56.9	56.9	53	39.9	0	1	315	0.00	30.116 
00:25	56.9	56.9	56.9	53	39.9	0	1	315	0.00	30.116 
00:30	56.9	56.9	56.9	53	39.9	0	1	315	0.00	30.116 
00:35	56.7	56.7	56.7	54	40.2	0	0	---	0.00	30.116 
00:40	56.6	56.6	56.6	54	40.1	0	0	---	0.00	30.116 
00:45	56.6	56.6	56.6	54	40.1	0	2	315	0.00	30.117 
00:50	56.5	56.5	56.5	54	40.1	0	1	315	0.00	30.117 
00:55	56.5	56.5	56.5	55	40.5	0	1	315	0.00	30.117 
01:00	56.5	56.5	56.5	54	40.1	0	2	315	0.00	30.117 
01:05	56.3	56.3	56.3	55	40.3	0	0	---	0.00	30.117 
01:10	56.3	56.3	56.3	54	39.9	0	1	315	0.00	30.117 
01:15	56.3	56.3	56.3	55	40.3	0	0	---	0.00	30.115 
01:20	56.3	56.3	56.3	55	40.3	0	2	315	0.00	30.115 
01:25	56.3	56.3	56.3	55	40.3	0	0	---	0.00	30.115 
01:30	56.2	56.2	56.2	55	40.2	0	2	315	0.00	30.115 
01:35	56.2	56.2	56.2	55	40.2	0	1	315	0.00	30.115 
01:40	56.2	56.2	56.2	55	40.2	0	1	315	0.00	30.115 
01:45	56.0	56.0	56.0	55	40.1	0	3	315	0.00	30.117 
01:50	56.0	56.0	56.0	55	40.1	0	1	315	0.00	30.117 
01:55	56.0	56.0	56.0	56	40.5	0	1	315	0.00	30.117 
02:00	56.0	56.0	56.0	55	40.1	0	1	315	0.00	30.115 
02:05	56.0	56.0	56.0	55	40.1	0	1	315	0.00	30.115 
02:10	56.0	56.0	56.0	55	40.1	0	1	315	0.00	30.115 
02:15	56.2	56.2	56.2	55	40.2	0	1	315	0.00	30.116 
02:20	56.2	56.2	56.2	55	40.2	0	1	315	0.00	30.116 
02:25	56.2	56.2	56.2	54	39.8	0	2	315	0.00	30.116 
02:30	56.3	56.3	56.3	55	40.3	0	1	315	0.00	30.117 
02:35	56.2	56.2	56.2	56	40.7	0	1	315	0.00	30.117 
02:40	56.0	56.0	56.0	57	41.0	0	2	315	0.00	30.117 
02:45	55.9	55.9	55.9	59	41.8	1	3	315	0.00	30.117 
02:50	55.4	55.4	55.4	62	42.6	1	3	315	0.00	30.117 
02:55	55.0	55.0	55.0	64	43.0	2	5	292	0.00	30.117 
03:00	54.5	54.5	54.5	66	43.4	1	4	292	0.00	30.120 
03:05	54.4	54.4	54.4	67	43.7	1	3	292	0.00	30.120 
03:10	54.2	54.2	54.2	67	43.5	1	5	292	0.00	30.120 
03:15	54.4	54.4	54.4	68	44.1	1	4	292	0.00	30.117 
03:20	54.4	54.4	54.4	69	44.4	1	4	292	0.00	30.117 
03:25	54.2	54.2	54.2	71	45.0	1	4	292	0.00	30.117 
03:30	54.2	54.2	54.2	72	45.4	1	3	292	0.00	30.115 
03:35	54.1	54.1	54.1	73	45.6	1	3	292	0.00	30.115 
03:40	54.1	54.1	54.1	73	45.6	1	3	292	0.00	30.115 
03:45	53.9	53.9	53.9	73	45.4	0	2	292	0.00	30.117 
03:50	53.9	53.9	53.9	74	45.8	0	2	292	0.00	30.117 
03:55	53.9	53.9	53.9	74	45.8	0	1	292	0.00	30.117 
04:00	53.8	53.8	53.8	74	45.7	0	3	292	0.00	30.118 
04:05	53.8	53.8	53.8	74	45.7	0	2	292	0.00	30.118 
04:10	53.6	53.6	53.6	74	45.5	0	2	292	0.00	30.118 
04:15	53.6	53.6	53.6	75	45.9	0	0	---	0.00	30.121 
04:20	53.5	53.5	53.5	75	45.8	0	1	292	0.00	30.121 
04:25	53.5	53.5	53.5	75	45.8	0	1	292	0.00	30.121 
04:30	53.5	53.5	53.5	75	45.8	0	1	292	0.00	30.119 
04:35	53.3	53.3	53.3	76	45.9	0	1	292	0.00	30.119 
04:40	53.2	53.2	53.2	76	45.8	0	1	292	0.00	30.119 
04:45	53.2	53.2	53.2	76	45.8	0	2	292	0.00	30.127 
04:50	53.2	53.2	53.2	77	46.2	0	1	292	0.00	30.127 
04:55	53.2	53.2	53.2	77	46.2	0	1	292	0.00	30.127 
05:00	53.1	53.1	53.1	77	46.1	0	1	292	0.00	30.129 
05:05	53.1	53.1	53.1	77	46.1	0	1	292	0.00	30.129 
05:10	53.1	53.1	53.1	77	46.1	0	1	292	0.00	30.129 
05:15	52.9	52.9	52.9	78	46.2	0	1	292	0.00	30.134 
05:20	52.8	52.8	52.8	78	46.1	0	1	292	0.00	30.134 
05:25	52.8	52.8	52.8	79	46.5	0	1	292	0.00	30.134 
05:30	52.6	52.6	52.6	80	46.6	0	0	---	0.00	30.132 
05:35	52.5	52.5	52.5	80	46.5	0	1	292	0.00	30.132 
05:40	52.5	52.5	52.5	80	46.5	0	1	292	0.00	30.132 
05:45	52.5	52.5	52.5	80	46.5	0	1	292	0.00	30.135 
05:50	52.5	52.5	52.5	80	46.5	0	0	---	0.00	30.135 
05:55	52.3	52.3	52.3	80	46.3	0	1	292	0.00	30.135 
06:00	52.3	52.3	52.3	81	46.6	0	1	292	0.00	30.137 
06:05	52.3	52.3	52.3	81	46.6	0	1	292	0.00	30.137 
06:10	52.3	52.3	52.3	80	46.3	0	1	292	0.00	30.137 
06:15	52.2	52.2	52.2	80	46.2	0	2	292	0.00	30.145 
06:20	52.3	52.3	52.3	79	46.0	0	1	292	0.00	30.145 
06:25	52.3	52.3	52.3	79	46.0	0	1	292	0.00	30.145 
06:30	52.3	52.3	52.3	79	46.0	0	1	292	0.00	30.149 
06:35	52.3	52.3	52.3	78	45.6	0	1	292	0.00	30.149 
06:40	52.3	52.3	52.3	78	45.6	0	1	292	0.00	30.149 
06:45	52.3	52.3	52.3	77	45.3	0	2	292	0.00	30.151 
06:50	52.5	52.5	52.5	77	45.5	0	2	292	0.00	30.151 
06:55	52.6	52.6	52.6	76	45.3	0	1	292	0.00	30.151 
07:00	52.6	52.6	52.6	76	45.3	0	1	292	0.00	30.152 
07:05	52.6	52.6	52.6	76	45.3	0	2	292	0.00	30.152 
07:10	52.6	52.6	52.6	77	45.6	0	1	292	0.00	30.152 
07:15	52.6	52.6	52.6	77	45.6	0	1	292	0.00	30.152 
07:20	52.6	52.6	52.6	77	45.6	0	1	292	0.00	30.152 
07:25	52.6	52.6	52.6	78	45.9	0	0	---	0.00	30.152 
07:30	52.6	52.6	52.6	78	45.9	0	1	292	0.00	30.159 
07:35	52.6	52.6	52.6	78	45.9	0	0	---	0.00	30.159 
07:40	52.6	52.6	52.6	78	45.9	0	1	292	0.00	30.159 
07:45	52.6	52.6	52.6	78	45.9	0	1	292	0.00	30.168 
07:50	52.6	52.6	52.6	77	45.6	0	1	292	0.00	30.168 
07:55	52.8	52.8	52.8	77	45.8	0	1	292	0.00	30.168 
08:00	52.8	52.8	52.8	77	45.8	0	1	292	0.00	30.167 
08:05	52.8	52.8	52.8	78	46.1	0	1	292	0.00	30.167 
08:10	52.8	52.8	52.8	78	46.1	0	1	292	0.00	30.167 
08:15	52.8	52.8	52.8	78	46.1	0	1	292	0.00	30.171 
08:20	52.8	52.8	52.8	79	46.5	0	1	292	0.00	30.171 
08:25	52.8	52.8	52.8	79	46.5	0	1	292	0.00	30.171 
08:30	52.9	52.9	52.9	79	46.6	0	1	292	0.00	30.172 
08:35	53.1	53.1	53.1	79	46.8	0	1	292	0.00	30.172 
08:40	53.1	53.1	53.1	79	46.8	0	1	292	0.00	30.172 
08:45	53.1	53.1	53.1	79	46.8	0	1	292	0.00	30.170 
08:50	53.2	53.2	53.2	79	46.9	0	1	292	0.00	30.170 
08:55	53.3	53.3	53.3	79	47.0	0	1	292	0.00	30.170 
09:00	53.5	53.5	53.5	79	47.1	0	1	292	0.00	30.168 
09:05	53.6	53.6	53.6	78	46.9	0	2	292	0.00	30.168 
09:10	53.8	53.8	53.8	78	47.1	0	1	292	0.00	30.168 
09:15	53.9	53.9	53.9	77	46.9	0	1	292	0.00	30.170 
09:20	53.9	53.9	53.9	76	46.5	0	2	292	0.00	30.170 
09:25	54.1	54.1	54.1	75	46.4	1	2	292	0.00	30.170 
09:30	54.4	54.4	54.4	74	46.3	0	3	292	0.00	30.169 
09:35	54.7	54.7	54.7	75	46.9	0	2	292	0.00	30.169 
09:40	55.0	55.0	55.0	73	46.5	1	3	292	0.00	30.169 
09:45	55.1	55.1	55.1	71	45.9	1	3	292	0.00	30.169 
09:50	55.3	55.3	55.3	70	45.7	1	3	292	0.00	30.169 
09:55	55.4	55.4	55.4	69	45.4	1	5	292	0.00	30.169 
10:00	55.6	55.6	55.6	69	45.6	1	3	292	0.00	30.170 
10:05	55.6	55.6	55.6	68	45.2	1	4	292	0.00	30.170 
10:10	55.7	55.7	55.7	68	45.3	1	3	292	0.00	30.170 
10:15	55.9	55.9	55.9	69	45.9	0	2	292	0.00	30.168 
10:20	56.0	56.0	56.0	69	46.0	1	2	292	0.00	30.168 
10:25	56.0	56.0	56.0	69	46.0	1	3	292	0.00	30.168 
10:30	56.3	56.3	56.3	69	46.3	0	3	292	0.00	30.170 
10:35	56.3	56.3	56.3	68	45.9	1	5	292	0.00	30.170 
10:40	56.3	56.3	56.3	68	45.9	1	3	292	0.00	30.170 
10:45	56.5	56.5	56.5	68	46.1	1	4	292	0.00	30.175 
10:50	56.6	56.6	56.6	68	46.2	1	5	292	0.00	30.175 
10:55	56.6	56.6	56.6	68	46.2	1	3	292	0.00	30.175 
11:00	56.9	56.9	56.9	69	46.8	0	3	292	0.00	30.173 
11:05	56.9	56.9	56.9	66	45.7	1	3	292	0.00	30.173 
11:10	57.2	57.2	57.2	69	47.1	1	3	292	0.00	30.173 
11:15	57.3	57.3	57.3	67	46.4	1	4	292	0.00	30.180 
11:20	57.3	57.3	57.3	67	46.4	1	4	292	0.00	30.180 
11:25	57.3	57.3	57.3	66	46.0	1	2	292	0.00	30.180 
11:30	57.3	57.3	57.3	65	45.6	1	3	292	0.00	30.180 
11:35	57.2	57.2	57.2	64	45.1	2	5	292	0.00	30.180 
11:40	57.2	57.2	57.2	65	45.5	0	3	292	0.00	30.180 
11:45	57.3	57.3	57.3	65	45.6	1	3	292	0.00	30.179 
11:50	57.6	57.6	57.6	65	45.9	0	2	292	0.00	30.179 
11:55	57.8	57.8	57.8	65	46.1	1	3	292	0.00	30.179 
12:00	57.8	57.8	57.8	65	46.1	1	3	292	0.00	30.182 
12:05	58.0	58.0	58.0	63	45.5	1	4	292	0.00	30.182 
12:10	57.8	57.8	57.8	64	45.7	1	4	292	0.00	30.182 
12:15	58.0	58.0	58.0	64	45.9	0	2	292	0.00	30.178 
12:20	58.0	58.0	58.0	65	46.3	1	2	292	0.00	30.178 
12:25	58.0	58.0	58.0	65	46.3	1	4	292	0.00	30.178 
12:30	58.3	58.3	58.3	65	46.6	0	3	292	0.00	30.180 
12:35	58.6	58.6	58.6	67	47.7	1	5	292	0.00	30.180 
12:40	58.7	58.7	58.7	65	47.0	1	3	292	0.00	30.180 
12:45	58.7	58.7	58.7	65	47.0	0	1	292	0.00	30.175 
12:50	58.9	58.9	58.9	65	47.2	0	2	292	0.00	30.175 
12:55	59.0	59.0	59.0	65	47.2	0	1	292	0.00	30.175 
13:00	59.0	59.0	59.0	65	47.2	0	2	292	0.00	30.170 
13:05	59.0	59.0	59.0	64	46.8	0	3	292	0.00	30.170 
13:10	58.9	58.9	58.9	63	46.3	0	3	292	0.00	30.170 
13:15	59.2	59.2	59.2	66	47.8	0	2	292	0.00	30.166 
13:20	59.5	59.5	59.5	65	47.7	0	2	292	0.00	30.166 
13:25	59.8	59.8	59.8	64	47.6	1	2	292	0.00	30.166 
13:30	59.6	59.6	59.6	64	47.4	0	3	292	0.00	30.164 
13:35	59.6	59.6	59.6	65	47.8	0	3	292	0.00	30.164 
13:40	59.5	59.5	59.5	64	47.3	0	3	292	0.00	30.164 
13:45	59.5	59.5	59.5	65	47.7	0	1	292	0.00	30.162 
13:50	59.5	59.5	59.5	66	48.1	0	2	292	0.00	30.162 
13:55	59.5	59.5	59.5	67	48.5	0	1	292	0.00	30.162 
14:00	59.5	59.5	59.5	67	48.5	0	1	292	0.00	30.153 
14:05	59.6	59.6	59.6	65	47.8	0	1	292	0.00	30.153 
14:10	59.5	59.5	59.5	65	47.7	1	4	292	0.00	30.153 
14:15	59.6	59.6	59.6	67	48.6	1	4	292	0.00	30.149 
14:20	60.2	60.2	60.2	66	48.8	0	2	292	0.00	30.149 
14:25	60.5	60.5	60.5	64	48.3	1	4	292	0.00	30.149 
14:30	60.7	60.7	60.7	63	48.0	1	4	90	0.00	30.147 
14:35	61.0	61.0	61.0	64	48.7	1	4	68	0.00	30.147 
14:40	61.2	61.2	61.2	62	48.1	0	2	68	0.00	30.147 
14:45	61.0	61.0	61.0	61	47.5	1	5	90	0.00	30.139 
14:50	61.0	61.0	61.0	62	47.9	1	4	292	0.00	30.139 
14:55	61.2	61.2	61.2	61	47.6	0	2	292	0.00	30.139 
15:00	61.3	61.3	61.3	58	46.4	0	2	158	0.00	30.132 
15:05	61.5	61.5	61.5	58	46.6	0	2	225	0.00	30.132 
15:10	61.8	61.8	61.8	60	47.8	0	2	225	0.00	30.132 
15:15	62.1	62.1	62.1	54	45.3	0	2	225	0.00	30.131 
15:20	62.3	62.3	62.3	52	44.4	0	2	225	0.00	30.131 
15:25	62.4	62.4	62.4	54	45.5	0	2	225	0.00	30.131 
15:30	62.4	62.4	62.4	54	45.5	1	3	202	0.00	30.130 
15:35	62.7	62.7	62.7	55	46.3	0	1	202	0.00	30.130 
15:40	62.9	62.9	62.9	54	46.0	1	4	112	0.00	30.130 
15:45	62.7	62.7	62.7	54	45.8	0	2	112	0.00	30.123 
15:50	62.6	62.6	62.6	54	45.7	0	3	112	0.00	30.123 
15:55	62.4	62.4	62.4	55	46.0	0	1	112	0.00	30.123 
16:00	62.3	62.3	62.3	53	44.9	0	1	112	0.00	30.119 
16:05	62.6	62.6	62.6	54	45.7	0	2	112	0.00	30.119 
16:10	62.6	62.6	62.6	53	45.2	1	3	112	0.00	30.119 
16:15	62.4	62.4	62.4	54	45.5	1	4	0	0.00	30.114 
16:20	62.1	62.1	62.1	55	45.7	1	3	292	0.00	30.114 
16:25	62.3	62.3	62.3	59	47.8	0	2	315	0.00	30.114 
16:30	62.4	62.4	62.4	55	46.0	1	4	68	0.00	30.108 
16:35	62.9	62.9	62.9	57	47.4	1	4	112	0.00	30.108 
16:40	63.1	63.1	63.1	54	46.2	1	5	112	0.00	30.108 
16:45	63.1	63.1	63.1	57	47.6	0	3	112	0.00	30.104 
16:50	62.7	62.7	62.7	53	45.3	0	3	112	0.00	30.104 
16:55	62.6	62.6	62.6	56	46.7	1	4	112	0.00	30.104 
17:00	62.3	62.3	62.3	56	46.4	2	4	112	0.00	30.105 
17:05	61.8	61.8	61.8	56	45.9	1	3	112	0.00	30.105 
17:10	61.8	61.8	61.8	58	46.9	0	1	112	0.00	30.105 
17:15	61.6	61.6	61.6	58	46.7	0	3	112	0.00	30.104 
17:20	61.6	61.6	61.6	58	46.7	0	3	112	0.00	30.104 
17:25	61.5	61.5	61.5	58	46.6	0	1	112	0.00	30.104 
17:30	61.3	61.3	61.3	59	46.8	0	2	112	0.00	30.104 
17:35	61.3	61.3	61.3	58	46.4	1	3	112	0.00	30.104 
17:40	61.3	61.3	61.3	59	46.8	0	1	112	0.00	30.104 
17:45	61.3	61.3	61.3	59	46.8	1	2	112	0.00	30.105 
17:50	61.3	61.3	61.3	59	46.8	0	2	112	0.00	30.105 
17:55	61.3	61.3	61.3	58	46.4	0	1	112	0.00	30.105 
18:00	61.2	61.2	61.2	58	46.3	0	1	112	0.00	30.106 
18:05	61.0	61.0	61.0	57	45.7	1	3	112	0.00	30.106 
18:10	61.0	61.0	61.0	59	46.6	0	2	112	0.00	30.106 
18:15	61.0	61.0	61.0	56	45.2	1	2	112	0.00	30.104 
18:20	61.0	61.0	61.0	56	45.2	0	3	112	0.00	30.104 
18:25	61.0	61.0	61.0	56	45.2	1	3	112	0.00	30.104 
18:30	61.0	61.0	61.0	58	46.1	0	2	112	0.00	30.103 
18:35	61.0	61.0	61.0	58	46.1	1	6	112	0.00	30.103 
18:40	60.9	60.9	60.9	61	47.4	1	4	112	0.00	30.103 
18:45	59.9	59.9	59.9	64	47.7	3	6	90	0.00	30.113 
18:50	59.0	59.0	59.0	66	47.7	2	6	68	0.00	30.113 
18:55	58.3	58.3	58.3	69	48.2	1	4	90	0.00	30.113 
19:00	57.6	57.6	57.6	70	47.9	1	4	90	0.00	30.121 
19:05	57.2	57.2	57.2	72	48.3	2	4	112	0.00	30.121 
19:10	56.9	56.9	56.9	73	48.3	1	3	112	0.00	30.121 
19:15	56.6	56.6	56.6	74	48.4	0	2	112	0.00	30.121 
19:20	56.5	56.5	56.5	75	48.7	0	3	112	0.00	30.121 
19:25	56.3	56.3	56.3	76	48.8	0	2	112	0.00	30.121 
19:30	56.0	56.0	56.0	76	48.5	0	2	112	0.00	30.122 
19:35	55.7	55.7	55.7	76	48.3	0	3	112	0.00	30.122 
19:40	55.3	55.3	55.3	77	48.2	0	2	112	0.00	30.122 
19:45	55.1	55.1	55.1	77	48.0	0	1	112	0.00	30.121 
19:50	55.0	55.0	55.0	78	48.3	0	2	112	0.00	30.121 
19:55	54.8	54.8	54.8	78	48.1	0	5	135	0.00	30.121 
20:00	54.7	54.7	54.7	80	48.7	0	3	135	0.00	30.121 
20:05	54.5	54.5	54.5	80	48.5	0	2	45	0.00	30.121 
20:10	54.4	54.4	54.4	81	48.7	0	3	45	0.00	30.121 
20:15	54.2	54.2	54.2	82	48.8	0	2	68	0.00	30.120 
20:20	54.1	54.1	54.1	82	48.7	0	1	68	0.00	30.120 
20:25	53.9	53.9	53.9	83	48.9	0	2	68	0.00	30.120 
20:30	53.8	53.8	53.8	83	48.8	0	0	---	0.00	30.122 
20:35	53.8	53.8	53.8	83	48.8	0	1	68	0.00	30.122 
20:40	53.6	53.6	53.6	84	48.9	0	1	68	0.00	30.122 
20:45	53.6	53.6	53.6	84	48.9	0	2	68	0.00	30.124 
20:50	53.5	53.5	53.5	84	48.8	0	0	---	0.00	30.124 
20:55	53.5	53.5	53.5	85	49.1	0	1	68	0.00	30.124 
21:00	53.3	53.3	53.3	85	48.9	0	1	68	0.00	30.126 
21:05	53.3	53.3	53.3	86	49.2	0	0	---	0.00	30.126 
21:10	53.3	53.3	53.3	86	49.2	0	0	---	0.00	30.126 
21:15	53.3	53.3	53.3	87	49.5	0	1	68	0.00	30.127 
21:20	53.2	53.2	53.2	87	49.4	0	1	68	0.00	30.127 
21:25	53.2	53.2	53.2	88	49.7	0	1	68	0.00	30.127 
21:30	53.1	53.1	53.1	88	49.6	0	0	---	0.00	30.137 
21:35	53.1	53.1	53.1	88	49.6	0	0	---	0.00	30.137 
21:40	52.9	52.9	52.9	88	49.4	0	0	---	0.00	30.137 
21:45	52.9	52.9	52.9	88	49.4	0	0	---	0.00	30.139 
21:50	52.8	52.8	52.8	89	49.6	0	0	---	0.01	30.139 
21:55	52.8	52.8	52.8	89	49.6	0	0	---	0.00	30.139 
22:00	52.8	52.8	52.8	89	49.6	0	0	---	0.00	30.141 
22:05	52.8	52.8	52.8	89	49.6	0	1	68	0.00	30.141 
22:10	52.8	52.8	52.8	89	49.6	0	0	---	0.00	30.141 
22:15	52.6	52.6	52.6	89	49.4	0	0	---	0.00	30.148 
22:20	52.6	52.6	52.6	89	49.4	0	1	68	0.00	30.148 
22:25	52.6	52.6	52.6	89	49.4	0	0	---	0.00	30.148 
22:30	52.6	52.6	52.6	90	49.7	0	0	---	0.00	30.154 
22:35	52.5	52.5	52.5	90	49.7	0	0	---	0.00	30.154 
22:40	52.3	52.3	52.3	89	49.2	0	2	68	0.00	30.154 
22:45	52.3	52.3	52.3	90	49.5	0	1	68	0.00	30.152 
22:50	52.2	52.2	52.2	90	49.4	0	0	---	0.00	30.152 
22:55	52.2	52.2	52.2	90	49.4	0	0	---	0.00	30.152 
23:00	52.0	52.0	52.0	90	49.2	0	0	---	0.00	30.156 
23:05	52.0	52.0	52.0	90	49.2	0	0	---	0.00	30.156 
23:10	52.0	52.0	52.0	90	49.2	0	0	---	0.00	30.156 
23:15	51.9	51.9	51.9	90	49.1	0	1	68	0.00	30.154 
23:20	51.9	51.9	51.9	90	49.1	0	0	---	0.00	30.154 
23:25	51.9	51.9	51.9	90	49.1	0	0	---	0.00	30.154 
23:30	51.9	51.9	51.9	89	48.8	0	1	68	0.00	30.154 
23:35	51.9	51.9	51.9	89	48.8	0	1	68	0.00	30.154 
23:40	51.9	51.9	51.9	89	48.8	0	2	68	0.00	30.154 
23:45	51.9	51.9	51.9	89	48.8	0	1	68	0.00	30.153 
23:50	51.9	51.9	51.9	89	48.8	0	0	---	0.00	30.153 
23:55	51.9	51.9	51.9	89	48.8	0	0	---	0.00	30.153 

CoCoRaHS
IN-AL-39
A2 Web Hosting
Creative Commons License
GoDaddy
search engine by freefind advanced

loaded 2018-11-16 10:48:23 • last modified 2010-11-18 10:43:29
Privacy PolicyDisclaimer
• wx.awcolley.com is powered by PmWiki v.2002016 •
• all content (unless otherwise noted) © 2018 A W Colley